Time;durP1;ratioP1;P1;durP2;ratioP2;P2;SDS_P1;SDS_P2;PMS_P1;PMS_P2;Temp;Humidity;BMP_temperature;BMP_pressure;BME280_temperature;BME280_humidity;BME280_pressure;Samples;Min_cycle;Max_cycle;Signal;HPM_P1;HPM_P2
2022/05/04 00:00:11;;;;;;;8.93;8.23;;;12.70;99.90;;;;;;6013487;23;20483;-81
2022/05/04 00:02:39;;;;;;;7.45;6.95;;;12.80;99.90;;;;;;6015306;23;20185;-82
2022/05/04 00:05:08;;;;;;;8.23;7.63;;;12.80;99.90;;;;;;6007879;23;20611;-82
2022/05/04 00:07:35;;;;;;;8.45;7.82;;;12.70;99.90;;;;;;6014100;23;20228;-82
2022/05/04 00:10:03;;;;;;;8.57;7.88;;;12.80;99.90;;;;;;6019783;23;20198;-81
2022/05/04 00:12:30;;;;;;;8.90;8.23;;;12.80;99.90;;;;;;6016265;23;20197;-82
2022/05/04 00:14:57;;;;;;;9.45;8.75;;;12.80;99.90;;;;;;6019640;23;20284;-82
2022/05/04 00:17:24;;;;;;;10.13;9.32;;;12.80;99.90;;;;;;6011204;23;20288;-82
2022/05/04 00:19:51;;;;;;;9.10;8.50;;;12.70;99.90;;;;;;6022492;23;20304;-82
2022/05/04 00:22:19;;;;;;;9.18;8.48;;;12.70;99.90;;;;;;6013855;23;20193;-82
2022/05/04 00:24:46;;;;;;;10.45;9.65;;;12.60;99.90;;;;;;6009502;23;20191;-81
2022/05/04 00:27:15;;;;;;;9.82;9.05;;;12.60;99.90;;;;;;6009014;23;20213;-82
2022/05/04 00:29:43;;;;;;;9.93;9.18;;;12.50;99.90;;;;;;6011187;23;20199;-81
2022/05/04 00:32:11;;;;;;;10.63;9.68;;;12.50;99.90;;;;;;6017225;23;20198;-81
2022/05/04 00:34:38;;;;;;;11.05;10.15;;;12.40;99.90;;;;;;6019787;23;20324;-81
2022/05/04 00:37:06;;;;;;;10.15;9.35;;;12.30;99.90;;;;;;6012758;23;20218;-82
2022/05/04 00:39:33;;;;;;;9.75;9.05;;;12.30;99.90;;;;;;6010958;23;20554;-81
2022/05/04 00:42:08;;;;;;;10.52;9.73;;;12.30;99.90;;;;;;6018173;23;20672;-82
2022/05/04 00:44:36;;;;;;;10.15;9.35;;;12.30;99.90;;;;;;6024112;23;20231;-81
2022/05/04 00:47:04;;;;;;;11.30;10.18;;;12.30;99.90;;;;;;6025038;23;20237;-81
2022/05/04 00:49:31;;;;;;;10.57;9.85;;;12.30;99.90;;;;;;6017423;23;20199;-82
2022/05/04 00:51:58;;;;;;;10.38;9.57;;;12.30;99.90;;;;;;6007152;23;20256;-81
2022/05/04 00:54:26;;;;;;;10.73;9.85;;;12.30;99.90;;;;;;6018417;23;20292;-81
2022/05/04 00:56:54;;;;;;;11.05;10.25;;;12.20;99.90;;;;;;6026372;23;20296;-81
2022/05/04 00:59:21;;;;;;;11.77;10.70;;;12.20;99.90;;;;;;6014110;23;20213;-82
2022/05/04 01:01:50;;;;;;;10.80;9.98;;;12.20;99.90;;;;;;6007788;23;20269;-81
2022/05/04 01:04:18;;;;;;;9.98;9.05;;;12.20;99.90;;;;;;6019560;23;20224;-82
2022/05/04 01:06:46;;;;;;;10.43;9.60;;;12.20;99.90;;;;;;6016539;23;20228;-82
2022/05/04 01:09:14;;;;;;;9.80;9.10;;;12.20;99.90;;;;;;6020351;23;20218;-81
2022/05/04 01:11:41;;;;;;;9.75;8.93;;;12.20;99.90;;;;;;6008855;23;20296;-81
2022/05/04 01:14:09;;;;;;;9.82;9.13;;;12.20;99.90;;;;;;6006217;23;20213;-81
2022/05/04 01:16:38;;;;;;;10.35;9.65;;;12.20;99.90;;;;;;6016997;23;20214;-81
2022/05/04 01:19:07;;;;;;;11.20;10.30;;;12.20;99.90;;;;;;6015912;23;21092;-82
2022/05/04 01:21:35;;;;;;;9.90;9.02;;;12.30;99.90;;;;;;6015540;23;20268;-82
2022/05/04 01:24:04;;;;;;;10.70;9.90;;;12.30;99.90;;;;;;6019189;23;20233;-82
2022/05/04 01:26:31;;;;;;;9.98;9.18;;;12.30;99.90;;;;;;6006601;23;20224;-82
2022/05/04 01:28:58;;;;;;;10.50;9.70;;;12.40;99.90;;;;;;6012172;23;20290;-82
2022/05/04 01:31:25;;;;;;;10.80;10.00;;;12.40;99.90;;;;;;6007971;23;20272;-81
2022/05/04 01:33:52;;;;;;;11.77;10.88;;;12.40;99.90;;;;;;6019443;23;20538;-81
2022/05/04 01:36:19;;;;;;;13.18;12.18;;;12.40;99.90;;;;;;6013993;23;20221;-81
2022/05/04 01:38:47;;;;;;;11.38;10.57;;;12.40;99.90;;;;;;6006536;23;20201;-81
2022/05/04 01:43:59;;;;;;;13.20;12.10;;;12.20;99.90;;;;;;6025568;23;20600;-81
2022/05/04 01:46:26;;;;;;;11.82;10.82;;;12.10;99.90;;;;;;6023272;23;20237;-82
2022/05/04 01:48:53;;;;;;;13.10;12.13;;;12.00;99.90;;;;;;6021254;23;20202;-82
2022/05/04 01:51:20;;;;;;;12.60;11.65;;;12.00;99.90;;;;;;6005579;23;20621;-81
2022/05/04 01:53:47;;;;;;;13.30;12.30;;;12.00;99.90;;;;;;6009367;23;20264;-81
2022/05/04 01:56:16;;;;;;;12.60;11.60;;;12.00;99.90;;;;;;6019394;23;20780;-82
2022/05/04 01:58:43;;;;;;;12.85;11.85;;;12.00;99.90;;;;;;6013844;23;20206;-82
2022/05/04 02:01:10;;;;;;;13.43;12.43;;;12.10;99.90;;;;;;6023674;23;20213;-81
2022/05/04 02:03:39;;;;;;;13.63;12.50;;;12.10;99.90;;;;;;6018879;23;20676;-81
2022/05/04 02:06:06;;;;;;;13.05;12.05;;;12.10;99.90;;;;;;6021589;23;20237;-82
2022/05/04 02:08:34;;;;;;;12.90;11.80;;;12.10;99.90;;;;;;6013020;23;20541;-81
2022/05/04 02:11:01;;;;;;;12.73;11.65;;;12.20;99.90;;;;;;6012087;23;20201;-81
2022/05/04 02:13:29;;;;;;;14.38;13.27;;;12.30;99.90;;;;;;6011359;23;20190;-81
2022/05/04 02:15:56;;;;;;;14.10;12.90;;;12.30;99.90;;;;;;6006257;23;20242;-81
2022/05/04 02:18:23;;;;;;;13.27;12.18;;;12.30;99.90;;;;;;6017881;23;20231;-81
2022/05/04 02:20:50;;;;;;;13.45;12.35;;;12.30;99.90;;;;;;6011676;23;20369;-81
2022/05/04 02:23:17;;;;;;;12.35;11.35;;;12.20;99.90;;;;;;6009484;23;20265;-82
2022/05/04 02:25:43;;;;;;;13.13;12.13;;;12.10;99.90;;;;;;6010245;23;20210;-81
2022/05/04 02:28:10;;;;;;;12.98;11.98;;;12.10;99.90;;;;;;6022851;23;20224;-81
2022/05/04 02:30:39;;;;;;;12.43;11.43;;;12.00;99.90;;;;;;6022222;23;20229;-81
2022/05/04 02:33:05;;;;;;;13.57;12.48;;;12.00;99.90;;;;;;6009515;23;20273;-81
2022/05/04 02:38:18;;;;;;;13.40;12.30;;;12.00;99.90;;;;;;6019939;23;20193;-81
2022/05/04 02:40:45;;;;;;;11.63;10.70;;;12.10;99.90;;;;;;6006204;23;20221;-81
2022/05/04 02:43:12;;;;;;;13.25;12.15;;;12.10;99.90;;;;;;6014559;23;20286;-81
2022/05/04 02:45:40;;;;;;;13.70;12.60;;;12.10;99.90;;;;;;6009770;23;20261;-83
2022/05/04 02:48:08;;;;;;;12.45;11.45;;;12.10;99.90;;;;;;6016123;23;20190;-81
2022/05/04 02:50:36;;;;;;;13.90;12.80;;;12.20;99.90;;;;;;6005232;23;21223;-81
2022/05/04 02:53:04;;;;;;;14.02;12.93;;;12.20;99.90;;;;;;6026122;23;20280;-81
2022/05/04 02:55:31;;;;;;;13.68;12.57;;;12.20;99.90;;;;;;6008888;23;20221;-82
2022/05/04 02:57:58;;;;;;;12.40;11.48;;;12.10;99.90;;;;;;6023444;23;20201;-82
2022/05/04 03:00:25;;;;;;;13.75;12.65;;;12.00;99.90;;;;;;6009470;23;20222;-82
2022/05/04 03:02:54;;;;;;;12.93;11.93;;;12.00;99.90;;;;;;6006375;23;20270;-81
2022/05/04 03:05:22;;;;;;;14.73;13.55;;;12.00;99.90;;;;;;6019083;23;20201;-81
2022/05/04 03:07:48;;;;;;;13.45;12.35;;;11.90;99.90;;;;;;6024989;23;20269;-82
2022/05/04 03:10:16;;;;;;;13.38;12.25;;;11.80;99.90;;;;;;6021316;23;20220;-81
2022/05/04 03:12:43;;;;;;;13.43;12.23;;;11.70;99.90;;;;;;6010957;23;20208;-82
2022/05/04 03:15:11;;;;;;;13.95;12.85;;;11.70;99.90;;;;;;6020915;23;20228;-81
2022/05/04 03:17:38;;;;;;;14.50;13.30;;;11.70;99.90;;;;;;6016715;23;20220;-81
2022/05/04 03:20:07;;;;;;;13.30;12.25;;;11.60;99.90;;;;;;6008584;23;20252;-82
2022/05/04 03:22:34;;;;;;;14.32;13.13;;;11.60;99.90;;;;;;6012244;23;20197;-81
2022/05/04 03:25:05;;;;;;;14.32;13.23;;;11.50;99.90;;;;;;6010973;23;20229;-82
2022/05/04 03:27:32;;;;;;;14.70;13.60;;;11.50;99.90;;;;;;6012784;23;20545;-81
2022/05/04 03:29:59;;;;;;;14.88;13.65;;;11.40;99.90;;;;;;6005606;23;20204;-80
2022/05/04 03:32:26;;;;;;;13.73;12.63;;;11.30;99.90;;;;;;6028298;23;20311;-81
2022/05/04 03:34:53;;;;;;;13.45;12.35;;;11.30;99.90;;;;;;6016788;23;20273;-81
2022/05/04 03:37:21;;;;;;;13.50;12.43;;;11.20;99.90;;;;;;6021691;23;20236;-81
2022/05/04 03:39:48;;;;;;;13.07;12.07;;;11.20;99.90;;;;;;6014908;23;20254;-81
2022/05/04 03:42:15;;;;;;;13.75;12.55;;;11.20;99.90;;;;;;6021711;23;20276;-82
2022/05/04 03:44:42;;;;;;;13.68;12.48;;;11.20;99.90;;;;;;6013184;23;20257;-81
2022/05/04 03:47:09;;;;;;;13.35;12.25;;;11.20;99.90;;;;;;6025823;23;20236;-81
2022/05/04 03:49:36;;;;;;;14.05;12.75;;;11.10;99.90;;;;;;6025647;23;20195;-81
2022/05/04 03:52:04;;;;;;;13.43;12.43;;;11.10;99.90;;;;;;6018814;23;20627;-82
2022/05/04 03:54:33;;;;;;;13.90;12.90;;;11.10;99.90;;;;;;6018509;23;20247;-82
2022/05/04 03:57:00;;;;;;;13.10;12.10;;;11.10;99.90;;;;;;6022698;23;20240;-83
2022/05/04 03:59:27;;;;;;;13.55;12.45;;;11.20;99.90;;;;;;6016180;23;20239;-82
2022/05/04 04:01:54;;;;;;;14.90;13.70;;;11.30;99.90;;;;;;6021065;23;20195;-82
2022/05/04 04:04:21;;;;;;;15.30;14.05;;;11.30;99.90;;;;;;6030601;23;20273;-83
2022/05/04 04:06:48;;;;;;;15.43;13.98;;;11.30;99.90;;;;;;6020516;23;20244;-82
2022/05/04 04:09:16;;;;;;;16.13;14.82;;;11.30;99.90;;;;;;6017018;23;20193;-82
2022/05/04 04:11:44;;;;;;;16.30;14.85;;;11.30;99.90;;;;;;6024566;23;20206;-83
2022/05/04 04:14:11;;;;;;;13.95;12.85;;;11.30;99.90;;;;;;6013206;23;20193;-83
2022/05/04 04:16:38;;;;;;;15.80;14.30;;;11.30;99.90;;;;;;6026056;23;20221;-82
2022/05/04 04:19:05;;;;;;;14.52;13.23;;;11.30;99.90;;;;;;6013953;23;20205;-81
2022/05/04 04:24:18;;;;;;;15.35;14.05;;;11.40;99.90;;;;;;6017672;23;20193;-88
2022/05/04 04:26:46;;;;;;;16.10;14.50;;;11.40;99.90;;;;;;6023719;23;20206;-81
2022/05/04 04:29:13;;;;;;;14.23;12.90;;;11.40;99.90;;;;;;6012802;23;20200;-79
2022/05/04 04:31:40;;;;;;;15.15;13.85;;;11.40;99.90;;;;;;6005586;23;20206;-80
2022/05/04 04:34:07;;;;;;;16.15;14.80;;;11.50;99.90;;;;;;6011758;23;20248;-79
2022/05/04 04:36:34;;;;;;;15.80;14.40;;;11.50;99.90;;;;;;6018095;23;20353;-79
2022/05/04 04:39:01;;;;;;;15.07;13.73;;;11.50;99.90;;;;;;6020333;23;20284;-80
2022/05/04 04:41:29;;;;;;;14.93;13.70;;;11.50;99.90;;;;;;6017432;23;20316;-78
2022/05/04 04:43:57;;;;;;;14.85;13.55;;;11.50;99.90;;;;;;6020789;23;20252;-81
2022/05/04 04:46:24;;;;;;;14.23;13.02;;;11.60;99.90;;;;;;6015118;23;20280;-79
2022/05/04 04:48:51;;;;;;;15.18;13.88;;;11.60;99.90;;;;;;6022388;23;20185;-79
2022/05/04 04:51:18;;;;;;;15.32;13.82;;;11.70;99.90;;;;;;6007989;23;20194;-79
2022/05/04 04:53:45;;;;;;;15.73;14.23;;;11.70;99.90;;;;;;6009539;23;20208;-79
2022/05/04 04:56:12;;;;;;;15.10;13.80;;;11.80;99.90;;;;;;6012125;23;20205;-79
2022/05/04 04:58:39;;;;;;;15.23;13.82;;;11.80;99.90;;;;;;6006104;23;20224;-78
2022/05/04 05:01:08;;;;;;;13.88;12.75;;;11.80;99.90;;;;;;6011581;23;20297;-77
2022/05/04 05:03:35;;;;;;;14.23;13.13;;;11.90;99.90;;;;;;6010669;23;20257;-77
2022/05/04 05:06:02;;;;;;;14.35;13.15;;;12.00;99.90;;;;;;6017609;23;20246;-78
2022/05/04 05:08:29;;;;;;;13.88;12.68;;;12.10;99.90;;;;;;6018642;23;20220;-78
2022/05/04 05:10:56;;;;;;;14.23;13.02;;;12.20;99.90;;;;;;6026027;23;20190;-78
2022/05/04 05:13:23;;;;;;;14.02;12.80;;;12.30;99.90;;;;;;6017455;23;20185;-78
2022/05/04 05:16:07;;;;;;;15.07;13.85;;;12.40;99.90;;;;;;6022392;23;20305;-78
2022/05/04 05:18:36;;;;;;;14.20;12.90;;;12.60;99.90;;;;;;6021060;23;20249;-78
2022/05/04 05:21:03;;;;;;;14.90;13.55;;;12.70;99.90;;;;;;6017385;23;20542;-79
2022/05/04 05:23:30;;;;;;;14.38;13.20;;;12.80;99.90;;;;;;6009917;23;20182;-78
2022/05/04 05:25:57;;;;;;;12.85;11.80;;;12.90;99.90;;;;;;6017959;23;20210;-79
2022/05/04 05:28:24;;;;;;;13.40;12.20;;;12.90;99.90;;;;;;6012104;23;20651;-75
2022/05/04 05:30:51;;;;;;;12.77;11.68;;;13.00;99.90;;;;;;6005515;23;20190;-78
2022/05/04 05:33:17;;;;;;;13.32;12.20;;;13.00;99.90;;;;;;6013672;23;20636;-81
2022/05/04 05:35:46;;;;;;;13.60;12.50;;;13.00;99.90;;;;;;6014423;23;20221;-79
2022/05/04 05:38:13;;;;;;;13.05;11.98;;;13.10;99.90;;;;;;6019634;23;20519;-80
2022/05/04 05:40:40;;;;;;;14.00;12.80;;;13.10;99.90;;;;;;6009113;23;20633;-79
2022/05/04 05:43:07;;;;;;;13.52;12.38;;;13.00;99.90;;;;;;6011021;23;20190;-79
2022/05/04 05:45:34;;;;;;;13.98;12.88;;;13.00;99.90;;;;;;6013955;23;20288;-80
2022/05/04 05:48:01;;;;;;;13.63;12.45;;;12.80;99.90;;;;;;6016373;23;20201;-80
2022/05/04 05:50:29;;;;;;;14.75;13.35;;;12.70;99.90;;;;;;6022644;23;20202;-80
2022/05/04 05:52:57;;;;;;;14.40;13.20;;;12.70;99.90;;;;;;6012961;23;20268;-79
2022/05/04 05:55:25;;;;;;;16.25;14.70;;;12.60;99.90;;;;;;6013537;23;20217;-79
2022/05/04 05:57:52;;;;;;;15.80;14.45;;;12.50;99.90;;;;;;6011875;23;20200;-80
2022/05/04 06:00:20;;;;;;;14.45;13.25;;;12.50;99.90;;;;;;6019526;23;20689;-80
2022/05/04 06:02:47;;;;;;;15.60;14.30;;;12.40;99.90;;;;;;6016491;23;20201;-80
2022/05/04 06:05:14;;;;;;;16.40;15.00;;;12.40;99.90;;;;;;6013360;23;20210;-79
2022/05/04 06:07:41;;;;;;;15.90;14.57;;;12.30;99.90;;;;;;6015329;23;20198;-80
2022/05/04 06:10:10;;;;;;;15.70;14.40;;;12.30;99.90;;;;;;6028575;23;20672;-79
2022/05/04 06:12:38;;;;;;;15.98;14.63;;;12.20;99.90;;;;;;6028328;23;20195;-79
2022/05/04 06:15:07;;;;;;;16.38;14.98;;;12.20;99.90;;;;;;6018254;23;20252;-80
2022/05/04 06:17:34;;;;;;;17.13;15.45;;;12.30;99.90;;;;;;6018326;23;20664;-80
2022/05/04 06:20:01;;;;;;;17.15;15.55;;;12.30;99.90;;;;;;6025791;23;20198;-79
2022/05/04 06:22:29;;;;;;;17.23;15.63;;;12.30;99.90;;;;;;6013263;23;20214;-80
2022/05/04 06:24:56;;;;;;;16.00;14.70;;;12.30;99.90;;;;;;6018841;23;20213;-80
2022/05/04 06:27:24;;;;;;;16.83;15.02;;;12.40;99.90;;;;;;6022056;23;20204;-79
2022/05/04 06:35:25;;;;;;;14.93;13.68;;;12.70;99.90;;;;;;5956798;23;20221;-79
2022/05/04 06:37:52;;;;;;;14.23;13.02;;;12.90;99.90;;;;;;6019225;23;20198;-80
2022/05/04 06:40:20;;;;;;;15.18;13.82;;;13.00;99.90;;;;;;6011825;23;21040;-80
2022/05/04 06:42:48;;;;;;;16.50;15.10;;;13.10;99.90;;;;;;6009991;23;20689;-80
2022/05/04 06:45:15;;;;;;;14.82;13.63;;;13.30;99.90;;;;;;6017156;23;20211;-79
2022/05/04 06:47:42;;;;;;;14.37;13.23;;;13.40;99.90;;;;;;6010277;23;20193;-80
2022/05/04 06:50:11;;;;;;;14.55;13.30;;;13.50;99.90;;;;;;6006872;23;20573;-79
2022/05/04 06:52:38;;;;;;;14.32;13.10;;;13.80;99.90;;;;;;6008659;23;20558;-80
2022/05/04 06:55:06;;;;;;;14.47;13.27;;;13.80;99.90;;;;;;6010382;23;20206;-80
2022/05/04 06:57:34;;;;;;;13.47;12.43;;;13.90;99.90;;;;;;6008526;23;20448;-80
2022/05/04 07:00:05;;;;;;;13.27;12.27;;;14.00;99.90;;;;;;6007574;23;20878;-80
2022/05/04 07:02:33;;;;;;;12.97;11.70;;;14.20;99.90;;;;;;6017597;23;20478;-80
2022/05/04 07:05:00;;;;;;;12.87;11.70;;;14.30;99.90;;;;;;6021578;23;20445;-80
2022/05/04 07:07:27;;;;;;;13.50;12.30;;;14.40;99.90;;;;;;6023305;23;20442;-79
2022/05/04 07:09:54;;;;;;;13.93;12.63;;;14.40;99.90;;;;;;6023445;23;20444;-80
2022/05/04 07:12:21;;;;;;;13.57;12.40;;;14.40;99.90;;;;;;6022742;23;20439;-79
2022/05/04 07:14:49;;;;;;;13.60;12.47;;;14.30;99.90;;;;;;6022200;23;20451;-80
2022/05/04 07:17:17;;;;;;;13.40;12.20;;;14.40;99.90;;;;;;6002568;23;20451;-79
2022/05/04 07:19:44;;;;;;;12.77;11.67;;;14.40;99.90;;;;;;6016593;23;20462;-79
2022/05/04 07:22:11;;;;;;;13.30;12.20;;;14.40;99.90;;;;;;6014886;23;20473;-80
2022/05/04 07:24:38;;;;;;;14.20;12.70;;;14.50;99.90;;;;;;6019375;23;20486;-78
2022/05/04 07:27:06;;;;;;;13.07;12.07;;;14.70;99.90;;;;;;6017481;23;20472;-79
2022/05/04 07:29:34;;;;;;;11.93;10.83;;;14.90;99.90;;;;;;6016442;23;20443;-79
2022/05/04 07:32:01;;;;;;;12.13;11.03;;;15.20;99.90;;;;;;6015730;23;20446;-79
2022/05/04 07:34:30;;;;;;;13.73;12.33;;;15.50;99.90;;;;;;6007320;23;20449;-79
2022/05/04 07:36:58;;;;;;;13.13;11.87;;;15.90;99.90;;;;;;6009349;23;20460;-79
2022/05/04 07:42:27;;;;;;;12.13;11.03;;;16.20;99.90;;;;;;6019021;23;20487;-78
2022/05/04 07:44:58;;;;;;;13.07;12.07;;;16.20;99.90;;;;;;6014910;23;20850;-79
2022/05/04 07:47:27;;;;;;;12.03;11.03;;;16.30;99.90;;;;;;6019241;23;20491;-78
2022/05/04 07:49:55;;;;;;;13.57;12.27;;;16.60;99.90;;;;;;6009094;23;20855;-79
2022/05/04 07:52:23;;;;;;;12.40;11.40;;;16.70;99.90;;;;;;6015783;23;20531;-79
2022/05/04 07:54:50;;;;;;;11.83;10.93;;;16.70;99.90;;;;;;6014026;23;20444;-79
2022/05/04 07:57:17;;;;;;;12.20;11.20;;;16.80;99.90;;;;;;6007767;23;20538;-79
2022/05/04 08:04:16;;;;;;;10.80;10.10;;;17.00;99.90;;;;;;6011008;23;20476;-79
2022/05/04 08:05:18;;;;;;;12.07;10.97;;;17.40;99.90;;;;;;6018004;23;20460;-79
2022/05/04 08:07:45;;;;;;;10.80;9.93;;;17.60;99.90;;;;;;6023645;23;20459;-79
2022/05/04 08:10:13;;;;;;;10.77;9.77;;;18.00;99.90;;;;;;6015492;23;20947;-79
2022/05/04 08:12:40;;;;;;;8.23;7.53;;;18.50;99.90;;;;;;6011100;23;20461;-79
2022/05/04 08:15:08;;;;;;;8.80;6.80;;;18.90;99.90;;;;;;6021928;23;20471;-79
2022/05/04 08:17:35;;;;;;;7.23;6.73;;;18.80;99.90;;;;;;6012279;23;20441;-79
2022/05/04 08:20:02;;;;;;;9.40;8.60;;;18.70;99.90;;;;;;6017727;23;20536;-79
2022/05/04 08:22:30;;;;;;;8.50;8.00;;;18.30;99.90;;;;;;6015076;23;20477;-79
2022/05/04 08:24:57;;;;;;;9.40;8.70;;;17.90;99.90;;;;;;6013715;23;20452;-79
2022/05/04 08:27:24;;;;;;;10.07;9.27;;;17.70;99.90;;;;;;6013015;23;20526;-79
2022/05/04 08:29:51;;;;;;;9.03;8.33;;;17.40;99.90;;;;;;6025160;23;20473;-79
2022/05/04 08:32:18;;;;;;;9.43;8.73;;;17.30;99.90;;;;;;6009667;23;20472;-79
2022/05/04 08:34:45;;;;;;;8.80;8.00;;;17.40;99.90;;;;;;6018959;23;20463;-79
2022/05/04 08:37:12;;;;;;;8.80;7.90;;;17.80;99.90;;;;;;6019222;23;20862;-79
2022/05/04 08:39:40;;;;;;;8.73;8.00;;;18.20;99.90;;;;;;6017163;23;20439;-79
2022/05/04 08:42:08;;;;;;;8.73;8.13;;;18.40;99.90;;;;;;6017965;23;20559;-79
2022/05/04 08:44:35;;;;;;;8.77;8.07;;;18.60;99.90;;;;;;6022902;23;20452;-79
2022/05/04 08:47:06;;;;;;;8.83;8.13;;;18.60;99.90;;;;;;6005244;23;20457;-79
2022/05/04 08:49:34;;;;;;;8.60;7.90;;;18.50;99.90;;;;;;6010236;23;20445;-79
2022/05/04 08:52:01;;;;;;;9.40;8.70;;;18.10;99.90;;;;;;6016080;23;20462;-79
2022/05/04 08:54:28;;;;;;;10.47;9.47;;;17.80;99.90;;;;;;6014013;23;20479;-79
2022/05/04 08:56:56;;;;;;;9.60;8.80;;;17.50;99.90;;;;;;6013623;23;20568;-79
2022/05/04 08:59:23;;;;;;;10.00;9.20;;;17.30;99.90;;;;;;6013041;23;20456;-79
2022/05/04 09:01:50;;;;;;;10.53;9.60;;;17.20;99.90;;;;;;6027501;23;20502;-79
2022/05/04 09:04:17;;;;;;;10.83;9.87;;;17.10;99.90;;;;;;6019250;23;20486;-79
2022/05/04 09:06:45;;;;;;;10.10;9.30;;;17.10;99.90;;;;;;6004834;23;20476;-79
2022/05/04 09:09:13;;;;;;;10.03;9.23;;;17.10;99.90;;;;;;6013102;23;20512;-80
2022/05/04 09:11:42;;;;;;;9.60;8.90;;;17.30;99.90;;;;;;6012350;23;20926;-79
2022/05/04 09:14:12;;;;;;;9.20;8.50;;;17.60;99.90;;;;;;6014983;23;20519;-80
2022/05/04 09:16:39;;;;;;;9.70;9.00;;;18.10;99.90;;;;;;6013325;23;21039;-79
2022/05/04 09:19:08;;;;;;;11.53;10.63;;;18.60;99.90;;;;;;6012707;23;20437;-79
2022/05/04 09:21:35;;;;;;;9.07;8.47;;;19.00;99.90;;;;;;6022235;23;20810;-79
2022/05/04 09:24:04;;;;;;;9.30;8.40;;;19.30;99.90;;;;;;6015594;23;20445;-80
2022/05/04 09:26:31;;;;;;;10.07;9.37;;;20.00;99.90;;;;;;6018735;23;20468;-80
2022/05/04 09:28:59;;;;;;;9.00;8.30;;;20.60;99.90;;;;;;6022846;23;20443;-80
2022/05/04 09:31:30;;;;;;;8.37;7.77;;;21.10;99.90;;;;;;6019337;23;20483;-80
2022/05/04 09:33:58;;;;;;;9.20;8.40;;;21.60;99.90;;;;;;6007165;23;20456;-80
2022/05/04 09:36:34;;;;;;;8.10;7.50;;;21.90;99.90;;;;;;6013516;23;20540;-80
2022/05/04 09:47:20;;;;;;;9.53;8.80;;;21.60;99.90;;;;;;6024297;23;20451;-80
2022/05/04 09:49:48;;;;;;;8.70;8.00;;;21.50;99.90;;;;;;6007108;23;20467;-79
2022/05/04 09:52:17;;;;;;;9.33;8.63;;;21.30;99.90;;;;;;6017529;23;20452;-80
2022/05/04 09:54:46;;;;;;;9.63;8.93;;;21.00;99.90;;;;;;6032559;23;21287;-80
2022/05/04 09:57:13;;;;;;;9.80;9.10;;;20.80;99.90;;;;;;6022708;23;20464;-80
2022/05/04 09:59:43;;;;;;;10.70;9.80;;;20.70;99.90;;;;;;6030823;23;20450;-80
2022/05/04 10:02:13;;;;;;;9.77;8.87;;;20.20;99.90;;;;;;6020404;23;20473;-80
2022/05/04 10:04:43;;;;;;;8.90;8.20;;;20.30;99.90;;;;;;6010406;23;20506;-79
2022/05/04 10:07:11;;;;;;;9.97;9.27;;;20.30;99.90;;;;;;6012018;23;20471;-82
2022/05/04 10:09:38;;;;;;;8.97;8.37;;;20.50;99.90;;;;;;6007118;23;20449;-80
2022/05/04 10:12:07;;;;;;;9.47;8.57;;;20.70;99.90;;;;;;6013179;23;20456;-79
2022/05/04 10:14:34;;;;;;;8.77;8.17;;;20.70;99.90;;;;;;6012173;23;20461;-79
2022/05/04 10:17:06;;;;;;;10.53;9.77;;;20.80;99.90;;;;;;6018035;23;20445;-79
2022/05/04 10:19:39;;;;;;;11.10;10.30;;;20.90;99.90;;;;;;6014231;23;20450;-79
2022/05/04 10:22:10;;;;;;;10.87;10.07;;;20.50;99.90;;;;;;5984986;23;21699;-83
2022/05/04 10:24:38;;;;;;;11.70;10.80;;;20.00;99.90;;;;;;5975582;23;20485;-83
2022/05/04 10:27:17;;;;;;;9.50;8.80;;;20.00;99.90;;;;;;5973848;23;20442;-83
2022/05/04 10:32:34;;;;;;;10.20;9.40;;;20.70;99.90;;;;;;5974104;23;20454;-83
2022/05/04 10:35:21;;;;;;;9.20;8.40;;;21.10;99.90;;;;;;5975166;23;20505;-79
2022/05/04 10:38:09;;;;;;;9.43;8.60;;;21.50;99.90;;;;;;5974609;23;20794;-79
2022/05/04 10:40:40;;;;;;;8.70;8.10;;;21.60;99.90;;;;;;5972328;23;20525;-82
2022/05/04 10:43:08;;;;;;;9.70;8.80;;;21.70;99.90;;;;;;5971217;23;20487;-83
2022/05/04 10:45:37;;;;;;;9.90;9.30;;;22.30;99.90;;;;;;5956108;23;20465;-83
2022/05/04 10:48:25;;;;;;;8.60;8.00;;;22.40;99.90;;;;;;5967312;23;20446;-83
2022/05/04 10:50:54;;;;;;;9.30;8.60;;;23.00;99.90;;;;;;5967908;23;20943;-83
2022/05/04 10:53:36;;;;;;;9.70;9.00;;;23.30;99.90;;;;;;5966735;23;20571;-83
2022/05/04 10:56:05;;;;;;;10.60;9.90;;;23.90;99.90;;;;;;5969703;23;20486;-82
2022/05/04 10:58:34;;;;;;;9.97;9.27;;;23.60;99.90;;;;;;5971374;23;20484;-83
2022/05/04 11:01:13;;;;;;;9.23;8.53;;;23.60;99.90;;;;;;5972855;23;20460;-83
2022/05/04 11:03:57;;;;;;;9.60;8.90;;;23.80;99.90;;;;;;5970778;23;20470;-83
2022/05/04 11:06:27;;;;;;;9.63;8.93;;;24.10;99.90;;;;;;5971309;23;20481;-82
2022/05/04 11:08:58;;;;;;;10.23;9.37;;;24.60;99.90;;;;;;5973390;23;20557;-82
2022/05/04 11:11:25;;;;;;;9.23;8.53;;;25.10;99.90;;;;;;5967581;23;20510;-82
2022/05/04 11:13:52;;;;;;;8.00;7.47;;;25.30;97.70;;;;;;5973983;23;20465;-82
2022/05/04 11:16:22;;;;;;;7.90;7.40;;;24.90;97.80;;;;;;5971355;23;20458;-83
2022/05/04 11:18:49;;;;;;;7.60;7.10;;;25.00;97.60;;;;;;5968871;23;20450;-82
2022/05/04 11:21:17;;;;;;;8.00;7.50;;;25.20;97.70;;;;;;5970836;23;20453;-83
2022/05/04 11:23:49;;;;;;;7.83;7.30;;;25.30;96.50;;;;;;5972598;23;20474;-80
2022/05/04 11:26:23;;;;;;;7.93;7.33;;;25.30;95.80;;;;;;5970889;23;20523;-82
2022/05/04 11:28:51;;;;;;;7.20;6.70;;;24.70;95.10;;;;;;5959181;23;20441;-83
2022/05/04 11:31:19;;;;;;;6.30;5.90;;;24.40;95.60;;;;;;5971486;23;20462;-82
2022/05/04 11:33:48;;;;;;;7.20;6.50;;;24.20;96.10;;;;;;5970754;23;20475;-82
2022/05/04 11:36:17;;;;;;;7.27;6.80;;;24.20;95.80;;;;;;5966380;23;20498;-82
2022/05/04 11:38:45;;;;;;;6.80;6.17;;;24.00;95.10;;;;;;5962122;23;20438;-82
2022/05/04 11:41:13;;;;;;;5.93;5.43;;;23.90;95.20;;;;;;5986285;23;20453;-86
2022/05/04 11:43:42;;;;;;;6.23;5.77;;;23.80;95.40;;;;;;5976522;23;21321;-85
2022/05/04 11:46:11;;;;;;;5.60;5.20;;;23.80;94.70;;;;;;5974830;23;20473;-86
2022/05/04 11:48:39;;;;;;;6.20;5.80;;;23.90;94.70;;;;;;5976285;23;20446;-87
2022/05/04 11:51:06;;;;;;;7.00;6.40;;;24.00;94.50;;;;;;5974964;23;20530;-88
2022/05/04 11:53:35;;;;;;;6.57;6.00;;;23.30;94.70;;;;;;5974341;23;20814;-94
2022/05/04 11:56:03;;;;;;;6.87;6.07;;;23.20;95.40;;;;;;5975454;24;21056;-88
2022/05/04 11:58:32;;;;;;;4.80;4.50;;;23.40;95.40;;;;;;5975044;24;20537;-87
2022/05/04 12:01:02;;;;;;;4.93;4.63;;;23.90;94.70;;;;;;5973028;23;20473;-78
2022/05/04 12:03:31;;;;;;;4.97;4.57;;;24.20;94.00;;;;;;5973431;23;20548;-87
2022/05/04 12:06:01;;;;;;;4.60;4.30;;;24.90;92.40;;;;;;5969956;23;20512;-83
2022/05/04 12:08:29;;;;;;;4.20;3.90;;;25.50;91.70;;;;;;5967917;23;20450;-80
2022/05/04 12:10:56;;;;;;;3.73;3.23;;;26.00;90.70;;;;;;5976983;23;20480;-80
2022/05/04 12:13:25;;;;;;;3.23;3.03;;;26.50;89.60;;;;;;5980993;23;20517;-82
2022/05/04 12:15:55;;;;;;;3.10;2.90;;;27.20;86.30;;;;;;5972685;23;20490;-83
2022/05/04 12:18:28;;;;;;;3.20;2.97;;;28.10;83.20;;;;;;5975263;23;20442;-83
2022/05/04 12:20:55;;;;;;;2.73;2.53;;;28.50;75.00;;;;;;5970770;23;20462;-83
2022/05/04 12:23:22;;;;;;;3.60;3.40;;;28.10;73.20;;;;;;5972127;23;20474;-82
2022/05/04 12:25:49;;;;;;;3.47;3.00;;;27.70;73.20;;;;;;5967801;23;20553;-82
2022/05/04 12:28:16;;;;;;;3.80;3.40;;;27.40;73.20;;;;;;5972116;24;20526;-82
2022/05/04 12:33:33;;;;;;;3.33;3.03;;;26.90;75.40;;;;;;5973963;23;21003;-83
2022/05/04 12:36:02;;;;;;;3.17;2.87;;;27.50;73.50;;;;;;5972838;23;20474;-82
2022/05/04 12:38:29;;;;;;;3.70;3.47;;;28.10;71.60;;;;;;5954389;23;20438;-81
2022/05/04 12:40:57;;;;;;;3.50;3.20;;;28.20;69.30;;;;;;5967395;23;20445;-81
2022/05/04 12:43:26;;;;;;;2.83;2.60;;;27.90;70.00;;;;;;5968497;23;20890;-82
2022/05/04 12:45:55;;;;;;;3.43;3.13;;;28.30;67.60;;;;;;5972683;23;20458;-82
2022/05/04 12:48:26;;;;;;;2.60;2.40;;;28.60;67.50;;;;;;5972835;23;20446;-82
2022/05/04 12:50:55;;;;;;;3.20;3.00;;;28.70;67.80;;;;;;5967154;23;20450;-82
2022/05/04 12:53:24;;;;;;;2.90;2.70;;;29.30;66.10;;;;;;5971886;23;20438;-82
2022/05/04 12:58:37;;;;;;;3.50;3.30;;;29.20;62.10;;;;;;5950059;23;20454;-82
2022/05/04 13:01:05;;;;;;;3.67;3.47;;;28.60;64.90;;;;;;5966052;23;20464;-82
2022/05/04 13:03:32;;;;;;;4.07;3.77;;;28.20;65.50;;;;;;5958504;23;20543;-82
2022/05/04 13:06:00;;;;;;;3.33;3.13;;;28.10;65.10;;;;;;5972455;23;20457;-82
2022/05/04 13:08:28;;;;;;;3.70;2.90;;;28.20;65.10;;;;;;5965840;23;20961;-81
2022/05/04 13:10:55;;;;;;;3.50;3.20;;;28.10;65.00;;;;;;5977176;23;20496;-80
2022/05/04 13:13:25;;;;;;;3.63;3.33;;;28.10;65.20;;;;;;5976227;23;20513;-81
2022/05/04 13:15:52;;;;;;;3.60;3.40;;;27.70;64.40;;;;;;5958962;23;20982;-80